Time;durP1;ratioP1;P1;durP2;ratioP2;P2;SDS_P1;SDS_P2;PMS_P1;PMS_P2;Temp;Humidity;BMP_temperature;BMP_pressure;BME280_temperature;BME280_humidity;BME280_pressure;Samples;Min_cycle;Max_cycle;Signal;HPM_P1;HPM_P2
2023/04/05 00:00:33;;;;;;;66.68;8.88;;;;;;;0.05;69.86;96694.66;5045925;28;20049;-74
2023/04/05 00:03:00;;;;;;;59.53;8.57;;;;;;;0.09;70.15;96694.97;5034267;28;20049;-74
2023/04/05 00:05:29;;;;;;;72.68;9.07;;;;;;;0.11;69.96;96696.38;5072450;28;20079;-74
2023/04/05 00:07:56;;;;;;;67.90;9.50;;;;;;;0.12;70.17;96694.50;5072623;28;20055;-74
2023/04/05 00:10:22;;;;;;;83.03;9.63;;;;;;;0.12;70.36;96692.66;5071317;28;20465;-74
2023/04/05 00:12:49;;;;;;;54.83;8.23;;;;;;;0.16;70.51;96688.44;5057403;28;20434;-74
2023/04/05 00:15:16;;;;;;;65.57;9.98;;;;;;;0.18;70.92;96688.19;5051925;28;20124;-74
2023/04/05 00:17:44;;;;;;;75.15;10.07;;;;;;;0.20;70.44;96681.50;5066000;28;20076;-74
2023/04/05 00:20:12;;;;;;;68.88;9.32;;;;;;;0.21;70.47;96685.84;5052606;28;20052;-74
2023/04/05 00:22:40;;;;;;;60.08;8.93;;;;;;;0.13;70.49;96678.19;5032432;28;20049;-74
2023/04/05 00:25:07;;;;;;;76.95;9.05;;;;;;;0.14;70.47;96685.16;5031545;28;20484;-74
2023/04/05 00:27:34;;;;;;;75.47;9.60;;;;;;;0.16;71.18;96677.72;5032265;28;20400;-74
2023/04/05 00:30:01;;;;;;;49.67;8.93;;;;;;;0.17;71.36;96684.69;5031772;28;20060;-74
2023/04/05 00:32:27;;;;;;;92.75;10.30;;;;;;;0.19;71.25;96677.22;5055246;28;20036;-74
2023/04/05 00:34:55;;;;;;;65.25;9.68;;;;;;;0.16;71.13;96667.00;5072088;28;20040;-74
2023/04/05 00:37:22;;;;;;;76.18;9.18;;;;;;;0.14;71.24;96669.09;5071520;28;20052;-74
2023/04/05 00:39:48;;;;;;;78.78;9.48;;;;;;;0.10;70.96;96676.00;5071485;28;20495;-74
2023/04/05 00:42:15;;;;;;;34.88;8.55;;;;;;;0.11;71.26;96668.78;5071467;28;20036;-74
2023/04/05 00:44:41;;;;;;;85.28;9.30;;;;;;;0.12;71.93;96673.91;5071733;28;20075;-74
2023/04/05 00:47:08;;;;;;;91.22;10.52;;;;;;;0.10;71.98;96673.31;5071144;28;20053;-74
2023/04/05 00:49:35;;;;;;;97.25;9.75;;;;;;;0.07;71.83;96673.00;5070812;28;20056;-74
2023/04/05 00:52:04;;;;;;;101.45;9.90;;;;;;;0.01;71.72;96666.75;5071058;28;20048;-74
2023/04/05 00:54:30;;;;;;;82.97;8.55;;;;;;;0.01;71.67;96668.63;5045093;28;20069;-74
2023/04/05 00:56:58;;;;;;;84.18;9.15;;;;;;;0.01;72.08;96666.75;5031299;28;20046;-74
2023/04/05 00:59:25;;;;;;;94.03;9.38;;;;;;;0.01;71.72;96664.09;5039827;28;20048;-74
2023/04/05 01:01:57;;;;;;;113.70;10.85;;;;;;;-0.02;71.98;96659.19;5070002;28;20692;-73
2023/04/05 01:04:26;;;;;;;79.57;38.55;;;;;;;-0.06;71.77;96658.88;5071023;28;20044;-74
2023/04/05 01:07:07;;;;;;;103.63;10.70;;;;;;;-0.08;72.24;96661.00;5050169;28;20057;-74
2023/04/05 01:09:45;;;;;;;129.27;11.25;;;;;;;-0.08;72.47;96654.81;5055208;28;20046;-73
2023/04/05 01:12:17;;;;;;;144.93;11.77;;;;;;;-0.10;72.42;96654.28;5026595;28;20397;-74
2023/04/05 01:14:46;;;;;;;101.63;9.98;;;;;;;-0.19;72.56;96653.03;5044166;28;20049;-74
2023/04/05 01:17:15;;;;;;;95.47;10.00;;;;;;;-0.34;73.22;96651.72;5050477;28;20053;-74
2023/04/05 01:19:46;;;;;;;132.38;10.10;;;;;;;-0.36;73.50;96648.47;5057861;28;20040;-74
2023/04/05 01:22:45;;;;;;;119.05;10.75;;;;;;;-0.45;73.69;96641.91;5060527;28;20131;-74
2023/04/05 01:25:48;;;;;;;106.35;10.55;;;;;;;-0.53;73.86;96647.63;5035453;28;20045;-74
2023/04/05 01:28:32;;;;;;;122.03;10.50;;;;;;;-0.63;74.69;96644.75;5033447;28;20045;-74
2023/04/05 01:31:07;;;;;;;90.47;10.48;;;;;;;-0.68;74.68;96642.00;5029743;28;20292;-74
2023/04/05 01:33:41;;;;;;;72.80;9.60;;;;;;;-0.73;74.69;96645.41;5070581;28;20060;-74
2023/04/05 01:36:17;;;;;;;78.88;11.60;;;;;;;-0.82;74.86;96633.47;5060928;28;20047;-74
2023/04/05 01:38:48;;;;;;;52.70;9.15;;;;;;;-0.90;74.84;96633.84;5050716;28;20045;-73
2023/04/05 01:41:15;;;;;;;63.15;10.77;;;;;;;-0.90;74.62;96628.47;5030212;28;20061;-74
2023/04/05 01:43:42;;;;;;;65.35;10.07;;;;;;;-0.89;75.15;96633.63;5030569;28;20468;-74
2023/04/05 01:46:10;;;;;;;42.95;9.15;;;;;;;-0.90;75.25;96621.28;5030242;28;20054;-74
2023/04/05 01:48:36;;;;;;;60.88;9.90;;;;;;;-0.92;75.58;96623.38;5030207;28;20045;-74
2023/04/05 01:51:02;;;;;;;54.63;10.55;;;;;;;-0.90;75.96;96620.47;5063678;28;20059;-74
2023/04/05 01:53:31;;;;;;;72.10;11.20;;;;;;;-0.93;75.80;96621.75;5057524;28;20053;-74
2023/04/05 01:56:00;;;;;;;75.40;11.52;;;;;;;-0.93;75.93;96616.41;5049392;28;20539;-74
2023/04/05 01:58:26;;;;;;;79.35;10.95;;;;;;;-0.93;75.88;96621.75;5049861;28;20516;-74
2023/04/05 02:00:54;;;;;;;63.65;9.95;;;;;;;-0.96;75.63;96616.88;5059124;28;20068;-74
2023/04/05 02:03:22;;;;;;;67.38;9.50;;;;;;;-0.97;75.41;96615.28;5042929;28;20056;-74
2023/04/05 02:05:48;;;;;;;62.05;8.95;;;;;;;-1.00;75.44;96615.72;5049760;28;20045;-74
2023/04/05 02:08:15;;;;;;;44.38;9.63;;;;;;;-1.01;75.88;96614.13;5049816;28;20054;-74
2023/04/05 02:10:41;;;;;;;49.55;9.38;;;;;;;-1.01;76.35;96616.78;5049244;28;20052;-75
2023/04/05 02:13:08;;;;;;;80.10;11.07;;;;;;;-1.02;76.83;96612.50;5049526;28;20056;-74
2023/04/05 02:15:35;;;;;;;64.47;9.27;;;;;;;-1.02;76.77;96612.50;5050022;28;20102;-74
2023/04/05 02:18:02;;;;;;;51.38;10.32;;;;;;;-1.02;76.66;96611.69;5050142;28;20059;-74
2023/04/05 02:20:31;;;;;;;76.40;10.45;;;;;;;-1.05;76.46;96602.28;5049278;28;20531;-73
2023/04/05 02:22:59;;;;;;;63.33;9.43;;;;;;;-1.08;76.20;96608.91;5050099;28;20056;-74
2023/04/05 02:25:26;;;;;;;53.10;9.65;;;;;;;-1.17;75.95;96604.19;5049375;28;20689;-74
2023/04/05 02:27:52;;;;;;;61.55;9.77;;;;;;;-1.22;75.92;96612.09;5049689;28;20041;-74
2023/04/05 02:30:19;;;;;;;67.03;9.77;;;;;;;-1.27;76.08;96598.63;5049236;28;20044;-74
2023/04/05 02:32:45;;;;;;;51.92;9.63;;;;;;;-1.28;76.79;96597.00;5049755;28;20106;-74
2023/04/05 02:35:12;;;;;;;68.85;10.65;;;;;;;-1.29;77.42;96600.75;5049226;28;20132;-74
2023/04/05 02:37:40;;;;;;;70.38;9.57;;;;;;;-1.30;77.70;96599.13;5049586;28;20048;-74
2023/04/05 02:40:08;;;;;;;72.45;9.93;;;;;;;-1.30;77.65;96593.78;5048589;28;20048;-74
2023/04/05 02:42:35;;;;;;;83.30;13.55;;;;;;;-1.32;77.84;96597.47;5049763;28;20132;-74
2023/04/05 02:45:01;;;;;;;256.33;133.05;;;;;;;-1.34;77.84;96596.09;5049312;28;20071;-74
2023/04/05 02:47:28;;;;;;;136.10;11.40;;;;;;;-1.39;77.61;96596.81;5049206;28;20502;-74
2023/04/05 02:49:54;;;;;;;72.93;11.45;;;;;;;-1.44;77.45;96591.34;5064447;28;20052;-74
2023/04/05 02:52:21;;;;;;;58.22;10.20;;;;;;;-1.52;77.48;96586.38;5049746;28;20654;-73
2023/04/05 02:54:49;;;;;;;54.67;10.77;;;;;;;-1.59;77.58;96588.38;5047362;28;20049;-74
2023/04/05 02:57:16;;;;;;;76.05;13.55;;;;;;;-1.61;77.60;96587.81;5048828;28;20048;-74
2023/04/05 02:59:42;;;;;;;108.95;29.63;;;;;;;-1.65;77.78;96589.31;5048678;28;20045;-73
2023/04/05 03:02:10;;;;;;;81.93;11.43;;;;;;;-1.66;78.22;96593.03;5049055;28;20496;-73
2023/04/05 03:04:37;;;;;;;44.17;9.48;;;;;;;-1.67;78.70;96583.38;5049707;28;20041;-74
2023/04/05 03:07:04;;;;;;;40.17;8.82;;;;;;;-1.65;79.13;96581.31;5049040;28;20098;-74
2023/04/05 03:09:32;;;;;;;67.53;12.13;;;;;;;-1.64;79.21;96583.72;5048686;28;20061;-74
2023/04/05 03:12:00;;;;;;;76.85;13.25;;;;;;;-1.62;79.91;96581.66;5049222;28;20052;-73
2023/04/05 03:14:26;;;;;;;72.45;10.38;;;;;;;-1.61;79.96;96579.78;5049263;28;20037;-74
2023/04/05 03:16:53;;;;;;;72.68;11.15;;;;;;;-1.59;80.18;96580.34;5049377;28;20056;-73
2023/04/05 03:19:21;;;;;;;74.70;12.20;;;;;;;-1.59;80.00;96575.81;5059548;28;20435;-74
2023/04/05 03:21:47;;;;;;;68.97;9.98;;;;;;;-1.57;79.79;96578.25;5050696;28;20064;-73
2023/04/05 03:24:14;;;;;;;115.32;11.40;;;;;;;-1.58;79.40;96581.97;5046966;28;20033;-73
2023/04/05 03:26:43;;;;;;;55.03;8.63;;;;;;;-1.59;79.04;96578.50;5054310;28;20087;-74
2023/04/05 03:29:11;;;;;;;97.00;12.65;;;;;;;-1.61;78.72;96577.13;5051883;28;20063;-74
2023/04/05 03:31:38;;;;;;;29.40;8.88;;;;;;;-1.67;78.34;96581.53;5067367;28;20549;-73
2023/04/05 03:34:05;;;;;;;70.22;10.10;;;;;;;-1.66;78.46;96579.69;5050975;28;20519;-74
2023/04/05 03:36:40;;;;;;;57.55;9.35;;;;;;;-1.70;78.34;96578.53;5049302;28;20052;-74
2023/04/05 03:39:07;;;;;;;78.55;10.95;;;;;;;-1.72;78.59;96575.25;5052569;28;20519;-73
2023/04/05 03:41:33;;;;;;;75.80;10.23;;;;;;;-1.73;78.79;96579.78;5049721;28;20502;-74
2023/04/05 03:44:00;;;;;;;60.13;9.38;;;;;;;-1.73;79.16;96576.31;5033197;28;20053;-74
2023/04/05 03:46:28;;;;;;;66.78;9.43;;;;;;;-1.74;79.51;96578.16;5032648;28;20757;-74
2023/04/05 03:48:56;;;;;;;132.88;21.00;;;;;;;-1.75;79.41;96575.75;5032909;28;20045;-74
2023/04/05 03:51:23;;;;;;;108.30;21.70;;;;;;;-1.78;79.23;96573.53;5032903;28;22346;-74
2023/04/05 03:53:50;;;;;;;64.22;9.60;;;;;;;-1.78;79.02;96570.88;5043306;28;20785;-74
2023/04/05 03:56:17;;;;;;;70.32;10.13;;;;;;;-1.79;78.61;96578.06;5031911;28;20046;-73
2023/04/05 03:58:43;;;;;;;156.25;67.03;;;;;;;-1.81;78.70;96576.69;5032985;28;20046;-73
2023/04/05 04:01:10;;;;;;;170.43;67.57;;;;;;;-1.80;78.64;96572.97;5032198;28;20045;-74
2023/04/05 04:03:38;;;;;;;117.28;43.70;;;;;;;-1.81;78.57;96579.34;5045708;28;20049;-74
2023/04/05 04:06:06;;;;;;;103.68;12.18;;;;;;;-1.81;78.91;96582.84;5052065;28;20056;-74
2023/04/05 04:08:33;;;;;;;48.20;9.05;;;;;;;-1.87;78.97;96578.44;5052548;28;20044;-73
2023/04/05 04:11:00;;;;;;;49.17;9.25;;;;;;;-1.90;79.00;96574.38;5070609;28;20059;-73
2023/04/05 04:13:26;;;;;;;38.97;9.50;;;;;;;-1.92;78.91;96575.66;5054207;28;20029;-74
2023/04/05 04:15:53;;;;;;;55.47;9.73;;;;;;;-1.92;79.25;96579.13;5051847;28;20095;-74
2023/04/05 04:18:19;;;;;;;39.97;8.48;;;;;;;-1.94;79.33;96578.53;5051567;28;20079;-74
2023/04/05 04:20:47;;;;;;;55.80;9.00;;;;;;;-1.98;79.13;96569.41;5054134;28;20063;-74
2023/04/05 04:23:14;;;;;;;66.65;9.63;;;;;;;-1.96;78.69;96577.16;5050459;28;20053;-74
2023/04/05 04:25:44;;;;;;;75.57;8.30;;;;;;;-1.97;78.64;96579.03;5051788;28;20400;-74
2023/04/05 04:28:11;;;;;;;85.00;8.93;;;;;;;-1.95;78.86;96579.59;5051334;28;20127;-74
2023/04/05 04:30:42;;;;;;;114.47;24.38;;;;;;;-1.93;78.45;96579.34;5051539;28;20060;-74
